Terminal Aerodrome Forecast
Issued by NWS Wilmington, OH

Current Version | Previous Version | Text Only | Print | Product List | Glossary Off
Versions: 1 2 3 4 5 6 7 8 9 10 11 12 13 14 15 16 17 18 19 20 21 22 23 24 25 26 27 28 29 30 31

000
FTUS41 KILN 181136
TAFDAY
TAF
KDAY 181136Z 1812/1912 28012KT P6SM VCSH OVC009
      TEMPO 1812/1813 4SM -DZ BR OVC007
     FM181300 28010KT P6SM OVC008
     FM181700 26010KT P6SM OVC012
     FM190300 24007KT P6SM SCT025
     FM190600 19004KT P6SM BKN250=

USA.gov is the U.S. government's official web portal to all federal, state and local government web resources and services.